createdAt,value
2022-07-27T00:05:52.823Z,100014.77
2022-07-27T00:15:58.251Z,100007.55
2022-07-27T00:26:04.795Z,100017.52
2022-07-27T00:36:17.346Z,100029.27
2022-07-27T00:46:29.288Z,100051.21
2022-07-27T00:56:32.593Z,100073.21
2022-07-27T01:06:36.842Z,100081.25
2022-07-27T01:16:40.603Z,100082.48
2022-07-27T01:26:55.894Z,100084.77
2022-07-27T01:37:05.270Z,100087.48
2022-07-27T01:47:14.236Z,100083.05
2022-07-27T01:57:18.347Z,100087.63
2022-07-27T02:07:30.214Z,100099.31
2022-07-27T02:17:38.859Z,100106.57
2022-07-27T02:27:45.853Z,100109.94
2022-07-27T02:37:51.909Z,100117.68
2022-07-27T02:47:55.113Z,100126.77
2022-07-27T02:57:58.241Z,100133.83
2022-07-27T03:08:01.735Z,100149.20
2022-07-27T03:18:04.954Z,100155.09
2022-07-27T03:28:08.078Z,100174.96
2022-07-27T03:48:57.992Z,100195.45
2022-07-27T03:59:01.724Z,100205.42
2022-07-27T04:09:08.506Z,100217.63
2022-07-27T04:19:21.304Z,100221.73
2022-07-27T04:29:28.718Z,100228.09
2022-07-27T04:39:32.283Z,100236.33
2022-07-27T04:49:36.334Z,100248.52
2022-07-27T05:00:50.558Z,100248.17
2022-07-27T05:11:04.427Z,100250.52
2022-07-27T05:21:25.587Z,100238.20
2022-07-27T05:31:41.395Z,100247.98
2022-07-27T05:41:48.906Z,100255.62
2022-07-27T05:51:54.890Z,100257.39
2022-07-27T06:02:03.068Z,100260.39
2022-07-27T06:12:11.520Z,100259.96
2022-07-27T06:22:21.478Z,100276.94
2022-07-27T06:32:25.202Z,100281.09
2022-07-27T06:42:29.125Z,100274.45
2022-07-27T06:52:33.862Z,100272.55
2022-07-27T07:02:50.645Z,100274.36
2022-07-27T07:12:57.720Z,100274.72
2022-07-27T07:23:02.690Z,100272.02
2022-07-27T07:33:06.055Z,100263.42
2022-07-27T07:43:13.458Z,100272.70
2022-07-27T07:53:27.232Z,100275.17
2022-07-27T08:03:45.000Z,100280.89
2022-07-27T08:13:51.364Z,100279.20
2022-07-27T08:23:55.068Z,100273.25
2022-07-27T08:34:02.139Z,100274.69
2022-07-27T08:44:27.997Z,100286.49
2022-07-27T09:05:25.359Z,100312.45
2022-07-27T09:15:34.672Z,100312.63
2022-07-27T09:26:02.185Z,100314.70
2022-07-27T09:36:12.477Z,100318.38
2022-07-27T09:46:37.793Z,100314.64
2022-07-27T09:56:44.407Z,100313.45
2022-07-27T10:07:02.422Z,100307.77
2022-07-27T10:17:08.054Z,100316.10
2022-07-27T10:27:29.347Z,100318.42
2022-07-27T10:37:35.054Z,100322.30
2022-07-27T10:47:46.306Z,100317.70
2022-07-27T10:57:49.602Z,100312.36
2022-07-27T11:08:23.840Z,100306.11
2022-07-27T11:18:16.287Z,100311.81
2022-07-27T11:28:37.696Z,100308.61
2022-07-27T11:38:53.555Z,100302.63
2022-07-27T11:49:29.325Z,100311.21
2022-07-27T11:59:39.622Z,100318.44
2022-07-27T12:09:59.442Z,100314.97
2022-07-27T12:20:07.703Z,100306.48
2022-07-27T12:30:21.556Z,100301.04
2022-07-27T12:40:24.949Z,100296.16
2022-07-27T12:50:28.862Z,100302.59
2022-07-27T13:00:34.218Z,100304.48
2022-07-27T13:10:38.404Z,100300.96
2022-07-27T13:20:44.429Z,100296.35
2022-07-27T13:30:47.609Z,100292.48
2022-07-27T13:40:57.170Z,100280.69
2022-07-27T13:51:08.595Z,100280.19
2022-07-27T14:01:13.317Z,100270.23
2022-07-27T14:11:16.921Z,100276.04
2022-07-27T14:21:21.674Z,100270.63
2022-07-27T14:31:24.965Z,100274.70
2022-07-27T14:41:31.810Z,100273.14
2022-07-27T14:51:36.652Z,100273.15
2022-07-27T15:02:30.570Z,100273.10
2022-07-27T15:12:37.950Z,100265.77
2022-07-27T15:22:41.601Z,100261.52
2022-07-27T15:32:44.873Z,100266.48
2022-07-27T15:42:49.823Z,100262.96
2022-07-27T15:52:54.338Z,100260.30
2022-07-27T16:02:57.560Z,100263.55
2022-07-27T16:13:01.808Z,100261.13
2022-07-27T16:23:17.723Z,100250.23
2022-07-27T16:33:25.504Z,100240.13
2022-07-27T16:43:37.453Z,100243.69
2022-07-27T16:53:45.129Z,100248.67
2022-07-27T17:03:49.186Z,100249.63
2022-07-27T17:13:58.880Z,100240.92
2022-07-27T17:24:09.226Z,100231.81
2022-07-27T17:34:13.536Z,100229.19
2022-07-27T17:44:16.718Z,100229.41
2022-07-27T17:54:21.001Z,100231.93
2022-07-27T18:04:25.619Z,100246.70
2022-07-27T18:14:28.884Z,100257.67
2022-07-27T18:24:35.805Z,100251.75
2022-07-27T18:34:39.637Z,100252.82
2022-07-27T18:44:44.912Z,100259.15
2022-07-27T18:54:54.623Z,100276.13
2022-07-27T19:05:00.733Z,100290.33
2022-07-27T19:15:05.864Z,100294.22
2022-07-27T19:25:09.310Z,100300.12
2022-07-27T19:35:13.309Z,100317.15
2022-07-27T19:45:44.483Z,100336.98
2022-07-27T19:55:54.079Z,100353.50
2022-07-27T20:06:02.689Z,100372.66
2022-07-27T20:16:08.565Z,100390.70
2022-07-27T20:26:12.630Z,100398.54
2022-07-27T20:36:16.046Z,100394.27
2022-07-27T20:46:20.210Z,100403.77
2022-07-27T20:56:23.689Z,100415.99
2022-07-27T21:31:09.917Z,100452.98
2022-07-27T21:41:19.888Z,100461.64
2022-07-27T21:51:26.826Z,100476.04
2022-07-27T22:01:32.625Z,100487.45
2022-07-27T22:11:40.010Z,100498.84
2022-07-27T22:22:15.707Z,100504.23
2022-07-27T22:32:22.035Z,100514.05
2022-07-27T22:42:30.638Z,100518.97
2022-07-27T22:53:23.876Z,100526.89
2022-07-27T23:16:16.640Z,100544.59
2022-07-27T23:49:13.191Z,100567.02
2022-07-27T23:59:17.754Z,100575.26
